Seattle, Washington
Traffic Map
Current Weather Conditions
Seattle, Washington
Overcast Light Rain
Overcast
48°
Feels Like: 46°
Wind Chill: 46° Ceiling: 2500
Heat Index: 48° Visibility: 5mi
Dew Point: 45° Wind: 6mph
Humidity: 87% Direction: 140° (SE)
Pressure: 29.58in Gusts: 0mph
Raw Report DataKBFI 202000Z 14005KT 5SM -RA OVC025 09/07 A2958 RMK AO2 P0001
Traffic Incident Summary
Active as of:
Severity:
Category:
InformationThere was an issue retrieving the traffic information for this location. Please try a different location or try again shortly.
Advertisements
Track Severe Weather on mobile